sensor_id;sensor_type;location;lat;lon;timestamp;P1;durP1;ratioP1;P2;durP2;ratioP2
13566;SDS011;6855;48.112;11.298;2024-03-08T00:01:20;18.10;;;10.43;;
13566;SDS011;6855;48.112;11.298;2024-03-08T00:03:48;21.27;;;10.20;;
13566;SDS011;6855;48.112;11.298;2024-03-08T00:06:17;23.27;;;10.00;;
13566;SDS011;6855;48.112;11.298;2024-03-08T00:08:47;18.80;;;9.43;;
13566;SDS011;6855;48.112;11.298;2024-03-08T00:11:16;20.00;;;10.50;;
13566;SDS011;6855;48.112;11.298;2024-03-08T00:13:43;22.50;;;10.37;;
13566;SDS011;6855;48.112;11.298;2024-03-08T00:16:11;18.13;;;9.73;;
13566;SDS011;6855;48.112;11.298;2024-03-08T00:18:39;21.63;;;10.30;;
13566;SDS011;6855;48.112;11.298;2024-03-08T00:21:06;19.60;;;9.90;;
13566;SDS011;6855;48.112;11.298;2024-03-08T00:23:36;20.30;;;9.90;;
13566;SDS011;6855;48.112;11.298;2024-03-08T00:26:04;15.57;;;9.40;;
13566;SDS011;6855;48.112;11.298;2024-03-08T00:28:31;18.63;;;9.30;;
13566;SDS011;6855;48.112;11.298;2024-03-08T00:30:59;15.47;;;9.63;;
13566;SDS011;6855;48.112;11.298;2024-03-08T00:33:27;17.50;;;9.47;;
13566;SDS011;6855;48.112;11.298;2024-03-08T00:35:54;15.17;;;9.27;;
13566;SDS011;6855;48.112;11.298;2024-03-08T00:38:21;18.50;;;9.37;;
13566;SDS011;6855;48.112;11.298;2024-03-08T00:40:49;20.37;;;10.67;;
13566;SDS011;6855;48.112;11.298;2024-03-08T00:43:17;17.67;;;9.87;;
13566;SDS011;6855;48.112;11.298;2024-03-08T00:45:44;18.73;;;9.53;;
13566;SDS011;6855;48.112;11.298;2024-03-08T00:48:11;17.40;;;9.83;;
13566;SDS011;6855;48.112;11.298;2024-03-08T00:50:39;18.57;;;10.40;;
13566;SDS011;6855;48.112;11.298;2024-03-08T00:53:06;24.23;;;10.50;;
13566;SDS011;6855;48.112;11.298;2024-03-08T00:55:36;19.10;;;9.53;;
13566;SDS011;6855;48.112;11.298;2024-03-08T00:58:04;19.00;;;9.57;;
13566;SDS011;6855;48.112;11.298;2024-03-08T01:00:31;17.23;;;8.63;;
13566;SDS011;6855;48.112;11.298;2024-03-08T01:02:59;20.60;;;10.73;;
13566;SDS011;6855;48.112;11.298;2024-03-08T01:05:28;21.63;;;9.13;;
13566;SDS011;6855;48.112;11.298;2024-03-08T01:07:55;20.17;;;11.00;;
13566;SDS011;6855;48.112;11.298;2024-03-08T01:10:22;18.33;;;8.87;;
13566;SDS011;6855;48.112;11.298;2024-03-08T01:12:50;18.13;;;10.07;;
13566;SDS011;6855;48.112;11.298;2024-03-08T01:15:19;15.60;;;8.87;;
13566;SDS011;6855;48.112;11.298;2024-03-08T01:17:46;19.87;;;9.63;;
13566;SDS011;6855;48.112;11.298;2024-03-08T01:20:13;18.40;;;10.00;;
13566;SDS011;6855;48.112;11.298;2024-03-08T01:22:40;20.97;;;10.03;;
13566;SDS011;6855;48.112;11.298;2024-03-08T01:25:07;16.63;;;9.03;;
13566;SDS011;6855;48.112;11.298;2024-03-08T01:27:35;21.60;;;10.17;;
13566;SDS011;6855;48.112;11.298;2024-03-08T01:30:02;18.10;;;9.10;;
13566;SDS011;6855;48.112;11.298;2024-03-08T01:32:31;19.87;;;9.83;;
13566;SDS011;6855;48.112;11.298;2024-03-08T01:34:58;21.90;;;10.50;;
13566;SDS011;6855;48.112;11.298;2024-03-08T01:37:26;21.10;;;9.17;;
13566;SDS011;6855;48.112;11.298;2024-03-08T01:39:54;20.50;;;10.53;;
13566;SDS011;6855;48.112;11.298;2024-03-08T01:42:21;21.53;;;10.80;;
13566;SDS011;6855;48.112;11.298;2024-03-08T01:44:49;21.20;;;10.43;;
13566;SDS011;6855;48.112;11.298;2024-03-08T01:47:16;21.20;;;9.60;;
13566;SDS011;6855;48.112;11.298;2024-03-08T01:49:46;26.70;;;10.33;;
13566;SDS011;6855;48.112;11.298;2024-03-08T01:52:14;18.30;;;10.00;;
13566;SDS011;6855;48.112;11.298;2024-03-08T01:54:41;16.50;;;9.83;;
13566;SDS011;6855;48.112;11.298;2024-03-08T01:57:08;19.60;;;10.50;;
13566;SDS011;6855;48.112;11.298;2024-03-08T01:59:35;17.53;;;9.80;;
13566;SDS011;6855;48.112;11.298;2024-03-08T02:02:03;18.60;;;9.73;;
13566;SDS011;6855;48.112;11.298;2024-03-08T02:04:31;18.60;;;10.30;;
13566;SDS011;6855;48.112;11.298;2024-03-08T02:07:00;24.20;;;10.53;;
13566;SDS011;6855;48.112;11.298;2024-03-08T02:09:30;19.03;;;10.30;;
13566;SDS011;6855;48.112;11.298;2024-03-08T02:11:57;20.80;;;10.93;;
13566;SDS011;6855;48.112;11.298;2024-03-08T02:14:24;16.80;;;10.00;;
13566;SDS011;6855;48.112;11.298;2024-03-08T02:16:51;18.90;;;9.83;;
13566;SDS011;6855;48.112;11.298;2024-03-08T02:19:19;19.23;;;10.07;;
13566;SDS011;6855;48.112;11.298;2024-03-08T02:21:47;22.30;;;10.43;;
13566;SDS011;6855;48.112;11.298;2024-03-08T02:24:15;19.23;;;10.00;;
13566;SDS011;6855;48.112;11.298;2024-03-08T02:26:42;20.77;;;9.80;;
13566;SDS011;6855;48.112;11.298;2024-03-08T02:29:09;19.23;;;9.73;;
13566;SDS011;6855;48.112;11.298;2024-03-08T02:31:36;24.33;;;11.00;;
13566;SDS011;6855;48.112;11.298;2024-03-08T02:34:04;20.67;;;11.10;;
13566;SDS011;6855;48.112;11.298;2024-03-08T02:36:31;18.50;;;10.07;;
13566;SDS011;6855;48.112;11.298;2024-03-08T02:39:01;23.90;;;10.30;;
13566;SDS011;6855;48.112;11.298;2024-03-08T02:41:30;20.23;;;10.27;;
13566;SDS011;6855;48.112;11.298;2024-03-08T02:43:57;21.37;;;10.77;;
13566;SDS011;6855;48.112;11.298;2024-03-08T02:46:25;18.93;;;10.63;;
13566;SDS011;6855;48.112;11.298;2024-03-08T02:48:52;21.13;;;10.47;;
13566;SDS011;6855;48.112;11.298;2024-03-08T02:51:19;20.87;;;10.53;;
13566;SDS011;6855;48.112;11.298;2024-03-08T02:53:46;22.50;;;11.20;;
13566;SDS011;6855;48.112;11.298;2024-03-08T02:56:18;22.90;;;11.93;;
13566;SDS011;6855;48.112;11.298;2024-03-08T02:58:47;22.90;;;9.93;;
13566;SDS011;6855;48.112;11.298;2024-03-08T03:01:14;19.10;;;10.30;;
13566;SDS011;6855;48.112;11.298;2024-03-08T03:03:41;29.13;;;10.67;;
13566;SDS011;6855;48.112;11.298;2024-03-08T03:06:08;20.03;;;10.20;;
13566;SDS011;6855;48.112;11.298;2024-03-08T03:08:37;20.70;;;10.40;;
13566;SDS011;6855;48.112;11.298;2024-03-08T03:11:09;24.10;;;11.13;;
13566;SDS011;6855;48.112;11.298;2024-03-08T03:13:39;27.40;;;12.93;;
13566;SDS011;6855;48.112;11.298;2024-03-08T03:16:07;21.20;;;11.07;;
13566;SDS011;6855;48.112;11.298;2024-03-08T03:18:35;22.27;;;10.90;;
13566;SDS011;6855;48.112;11.298;2024-03-08T03:21:02;24.73;;;11.47;;
13566;SDS011;6855;48.112;11.298;2024-03-08T03:23:32;23.10;;;11.20;;
13566;SDS011;6855;48.112;11.298;2024-03-08T03:25:59;24.40;;;11.60;;
13566;SDS011;6855;48.112;11.298;2024-03-08T03:28:27;23.10;;;11.33;;
13566;SDS011;6855;48.112;11.298;2024-03-08T03:30:56;21.63;;;10.87;;
13566;SDS011;6855;48.112;11.298;2024-03-08T03:33:24;22.53;;;11.87;;
13566;SDS011;6855;48.112;11.298;2024-03-08T03:35:51;20.20;;;10.73;;
13566;SDS011;6855;48.112;11.298;2024-03-08T03:38:19;24.17;;;11.20;;
13566;SDS011;6855;48.112;11.298;2024-03-08T03:40:48;21.50;;;11.20;;
13566;SDS011;6855;48.112;11.298;2024-03-08T03:43:17;20.20;;;10.80;;
13566;SDS011;6855;48.112;11.298;2024-03-08T03:45:44;19.83;;;11.60;;
13566;SDS011;6855;48.112;11.298;2024-03-08T03:48:13;22.97;;;11.67;;
13566;SDS011;6855;48.112;11.298;2024-03-08T03:50:40;18.23;;;10.40;;
13566;SDS011;6855;48.112;11.298;2024-03-08T03:53:07;27.00;;;12.50;;
13566;SDS011;6855;48.112;11.298;2024-03-08T03:55:35;22.90;;;11.23;;
13566;SDS011;6855;48.112;11.298;2024-03-08T03:58:03;21.87;;;10.20;;
13566;SDS011;6855;48.112;11.298;2024-03-08T04:00:30;22.80;;;11.60;;
13566;SDS011;6855;48.112;11.298;2024-03-08T04:02:58;19.70;;;10.50;;
13566;SDS011;6855;48.112;11.298;2024-03-08T04:05:27;23.20;;;9.67;;
13566;SDS011;6855;48.112;11.298;2024-03-08T04:07:54;20.97;;;10.80;;
13566;SDS011;6855;48.112;11.298;2024-03-08T04:10:22;21.07;;;11.07;;
13566;SDS011;6855;48.112;11.298;2024-03-08T04:12:49;19.40;;;9.60;;
13566;SDS011;6855;48.112;11.298;2024-03-08T04:15:16;25.33;;;12.83;;
13566;SDS011;6855;48.112;11.298;2024-03-08T04:17:43;28.80;;;12.70;;
13566;SDS011;6855;48.112;11.298;2024-03-08T04:20:10;24.30;;;11.17;;
13566;SDS011;6855;48.112;11.298;2024-03-08T04:22:40;23.20;;;11.07;;
13566;SDS011;6855;48.112;11.298;2024-03-08T04:25:08;26.33;;;12.50;;
13566;SDS011;6855;48.112;11.298;2024-03-08T04:27:35;20.30;;;11.03;;
13566;SDS011;6855;48.112;11.298;2024-03-08T04:30:03;27.07;;;12.73;;
13566;SDS011;6855;48.112;11.298;2024-03-08T04:32:32;25.80;;;11.60;;
13566;SDS011;6855;48.112;11.298;2024-03-08T04:34:59;24.77;;;11.50;;
13566;SDS011;6855;48.112;11.298;2024-03-08T04:37:28;23.10;;;11.00;;
13566;SDS011;6855;48.112;11.298;2024-03-08T04:39:57;21.20;;;10.97;;
13566;SDS011;6855;48.112;11.298;2024-03-08T04:42:24;24.83;;;11.50;;
13566;SDS011;6855;48.112;11.298;2024-03-08T04:44:51;24.10;;;11.73;;
13566;SDS011;6855;48.112;11.298;2024-03-08T04:47:19;24.80;;;11.77;;
13566;SDS011;6855;48.112;11.298;2024-03-08T04:49:46;20.43;;;10.87;;
13566;SDS011;6855;48.112;11.298;2024-03-08T04:52:15;24.60;;;12.80;;
13566;SDS011;6855;48.112;11.298;2024-03-08T04:54:43;24.57;;;12.00;;
13566;SDS011;6855;48.112;11.298;2024-03-08T04:57:12;23.93;;;11.20;;
13566;SDS011;6855;48.112;11.298;2024-03-08T04:59:39;26.93;;;12.23;;
13566;SDS011;6855;48.112;11.298;2024-03-08T05:02:06;29.37;;;13.50;;
13566;SDS011;6855;48.112;11.298;2024-03-08T05:04:33;23.47;;;12.53;;
13566;SDS011;6855;48.112;11.298;2024-03-08T05:07:01;25.67;;;13.80;;
13566;SDS011;6855;48.112;11.298;2024-03-08T05:09:29;25.73;;;12.37;;
13566;SDS011;6855;48.112;11.298;2024-03-08T05:11:57;27.97;;;12.60;;
13566;SDS011;6855;48.112;11.298;2024-03-08T05:14:26;24.40;;;11.63;;
13566;SDS011;6855;48.112;11.298;2024-03-08T05:16:53;26.07;;;12.80;;
13566;SDS011;6855;48.112;11.298;2024-03-08T05:19:20;23.17;;;11.63;;
13566;SDS011;6855;48.112;11.298;2024-03-08T05:21:49;27.67;;;13.00;;
13566;SDS011;6855;48.112;11.298;2024-03-08T05:24:16;25.13;;;11.67;;
13566;SDS011;6855;48.112;11.298;2024-03-08T05:26:44;25.83;;;12.03;;
13566;SDS011;6855;48.112;11.298;2024-03-08T05:29:12;22.87;;;11.27;;
13566;SDS011;6855;48.112;11.298;2024-03-08T05:31:45;25.77;;;12.20;;
13566;SDS011;6855;48.112;11.298;2024-03-08T05:34:13;21.90;;;11.40;;
13566;SDS011;6855;48.112;11.298;2024-03-08T05:36:40;23.03;;;12.20;;
13566;SDS011;6855;48.112;11.298;2024-03-08T05:39:09;24.90;;;11.90;;
13566;SDS011;6855;48.112;11.298;2024-03-08T05:41:37;25.10;;;11.93;;
13566;SDS011;6855;48.112;11.298;2024-03-08T05:44:04;19.87;;;10.57;;
13566;SDS011;6855;48.112;11.298;2024-03-08T05:46:31;21.57;;;12.47;;
13566;SDS011;6855;48.112;11.298;2024-03-08T05:49:00;24.40;;;11.80;;
13566;SDS011;6855;48.112;11.298;2024-03-08T05:51:30;23.37;;;12.47;;
13566;SDS011;6855;48.112;11.298;2024-03-08T05:53:59;21.23;;;10.73;;
13566;SDS011;6855;48.112;11.298;2024-03-08T05:56:27;23.00;;;11.53;;
13566;SDS011;6855;48.112;11.298;2024-03-08T05:58:55;23.10;;;12.00;;
13566;SDS011;6855;48.112;11.298;2024-03-08T06:01:23;18.03;;;11.53;;
13566;SDS011;6855;48.112;11.298;2024-03-08T06:03:51;26.13;;;13.17;;
13566;SDS011;6855;48.112;11.298;2024-03-08T06:06:22;24.00;;;11.63;;
13566;SDS011;6855;48.112;11.298;2024-03-08T06:08:49;26.83;;;14.13;;
13566;SDS011;6855;48.112;11.298;2024-03-08T06:11:16;23.50;;;12.73;;
13566;SDS011;6855;48.112;11.298;2024-03-08T06:13:44;26.30;;;12.77;;
13566;SDS011;6855;48.112;11.298;2024-03-08T06:16:11;33.47;;;13.33;;
13566;SDS011;6855;48.112;11.298;2024-03-08T06:18:38;23.27;;;12.17;;
13566;SDS011;6855;48.112;11.298;2024-03-08T06:21:06;25.47;;;13.10;;
13566;SDS011;6855;48.112;11.298;2024-03-08T06:23:35;32.13;;;13.13;;
13566;SDS011;6855;48.112;11.298;2024-03-08T06:26:03;25.77;;;11.33;;
13566;SDS011;6855;48.112;11.298;2024-03-08T06:28:31;23.10;;;11.73;;
13566;SDS011;6855;48.112;11.298;2024-03-08T06:30:59;23.73;;;12.47;;
13566;SDS011;6855;48.112;11.298;2024-03-08T06:33:26;26.37;;;11.90;;
13566;SDS011;6855;48.112;11.298;2024-03-08T06:35:56;27.07;;;12.53;;
13566;SDS011;6855;48.112;11.298;2024-03-08T06:38:24;22.50;;;12.20;;
13566;SDS011;6855;48.112;11.298;2024-03-08T06:40:52;21.73;;;11.83;;
13566;SDS011;6855;48.112;11.298;2024-03-08T06:43:19;24.67;;;12.40;;
13566;SDS011;6855;48.112;11.298;2024-03-08T06:45:47;28.20;;;12.13;;
13566;SDS011;6855;48.112;11.298;2024-03-08T06:48:14;26.93;;;13.20;;
13566;SDS011;6855;48.112;11.298;2024-03-08T06:50:42;23.97;;;12.03;;
13566;SDS011;6855;48.112;11.298;2024-03-08T06:53:10;22.17;;;11.60;;
13566;SDS011;6855;48.112;11.298;2024-03-08T06:55:37;25.03;;;11.40;;
13566;SDS011;6855;48.112;11.298;2024-03-08T06:58:06;21.27;;;11.00;;
13566;SDS011;6855;48.112;11.298;2024-03-08T07:00:33;23.90;;;12.50;;
13566;SDS011;6855;48.112;11.298;2024-03-08T07:03:01;22.77;;;11.33;;
13566;SDS011;6855;48.112;11.298;2024-03-08T07:05:28;27.77;;;12.50;;
13566;SDS011;6855;48.112;11.298;2024-03-08T07:07:56;22.63;;;11.80;;
13566;SDS011;6855;48.112;11.298;2024-03-08T07:10:23;28.13;;;12.60;;
13566;SDS011;6855;48.112;11.298;2024-03-08T07:12:50;18.93;;;9.13;;
13566;SDS011;6855;48.112;11.298;2024-03-08T07:15:19;23.10;;;11.00;;
13566;SDS011;6855;48.112;11.298;2024-03-08T07:17:48;22.97;;;10.77;;
13566;SDS011;6855;48.112;11.298;2024-03-08T07:20:17;25.40;;;11.97;;
13566;SDS011;6855;48.112;11.298;2024-03-08T07:22:45;21.17;;;12.13;;
13566;SDS011;6855;48.112;11.298;2024-03-08T07:25:15;27.10;;;12.27;;
13566;SDS011;6855;48.112;11.298;2024-03-08T07:27:49;21.50;;;11.57;;
13566;SDS011;6855;48.112;11.298;2024-03-08T07:30:17;24.27;;;12.50;;
13566;SDS011;6855;48.112;11.298;2024-03-08T07:32:59;19.47;;;9.37;;
13566;SDS011;6855;48.112;11.298;2024-03-08T07:35:27;25.83;;;13.20;;
13566;SDS011;6855;48.112;11.298;2024-03-08T07:37:56;22.83;;;12.30;;
13566;SDS011;6855;48.112;11.298;2024-03-08T07:40:25;20.80;;;11.33;;
13566;SDS011;6855;48.112;11.298;2024-03-08T07:42:52;19.73;;;9.80;;
13566;SDS011;6855;48.112;11.298;2024-03-08T07:45:19;24.70;;;11.27;;
13566;SDS011;6855;48.112;11.298;2024-03-08T07:47:47;21.90;;;11.20;;
13566;SDS011;6855;48.112;11.298;2024-03-08T07:50:17;22.93;;;11.47;;
13566;SDS011;6855;48.112;11.298;2024-03-08T07:52:44;22.40;;;11.57;;
13566;SDS011;6855;48.112;11.298;2024-03-08T07:55:11;22.13;;;12.40;;
13566;SDS011;6855;48.112;11.298;2024-03-08T07:57:40;26.07;;;11.47;;
13566;SDS011;6855;48.112;11.298;2024-03-08T08:00:08;20.60;;;10.80;;
13566;SDS011;6855;48.112;11.298;2024-03-08T08:02:36;24.77;;;11.80;;
13566;SDS011;6855;48.112;11.298;2024-03-08T08:05:03;21.87;;;11.27;;
13566;SDS011;6855;48.112;11.298;2024-03-08T08:07:32;20.90;;;10.77;;
13566;SDS011;6855;48.112;11.298;2024-03-08T08:09:59;16.60;;;9.50;;
13566;SDS011;6855;48.112;11.298;2024-03-08T08:12:26;27.80;;;12.37;;
13566;SDS011;6855;48.112;11.298;2024-03-08T08:14:54;23.53;;;11.93;;
13566;SDS011;6855;48.112;11.298;2024-03-08T08:17:21;21.27;;;11.10;;
13566;SDS011;6855;48.112;11.298;2024-03-08T08:19:48;18.60;;;10.07;;
13566;SDS011;6855;48.112;11.298;2024-03-08T08:22:16;20.30;;;11.10;;
13566;SDS011;6855;48.112;11.298;2024-03-08T08:24:45;19.30;;;10.23;;
13566;SDS011;6855;48.112;11.298;2024-03-08T08:27:12;24.80;;;11.77;;
13566;SDS011;6855;48.112;11.298;2024-03-08T08:29:39;25.53;;;10.80;;
13566;SDS011;6855;48.112;11.298;2024-03-08T08:32:06;21.50;;;11.13;;
13566;SDS011;6855;48.112;11.298;2024-03-08T08:34:35;20.03;;;10.80;;
13566;SDS011;6855;48.112;11.298;2024-03-08T08:37:03;22.33;;;10.80;;
13566;SDS011;6855;48.112;11.298;2024-03-08T08:39:31;23.87;;;10.53;;
13566;SDS011;6855;48.112;11.298;2024-03-08T08:41:59;18.27;;;10.77;;
13566;SDS011;6855;48.112;11.298;2024-03-08T08:44:28;22.87;;;11.70;;
13566;SDS011;6855;48.112;11.298;2024-03-08T08:46:56;18.47;;;9.50;;
13566;SDS011;6855;48.112;11.298;2024-03-08T08:49:23;16.20;;;10.40;;
13566;SDS011;6855;48.112;11.298;2024-03-08T08:51:53;19.50;;;9.93;;
13566;SDS011;6855;48.112;11.298;2024-03-08T08:54:20;21.20;;;10.10;;
13566;SDS011;6855;48.112;11.298;2024-03-08T08:56:50;17.83;;;10.20;;
13566;SDS011;6855;48.112;11.298;2024-03-08T08:59:18;22.20;;;10.63;;
13566;SDS011;6855;48.112;11.298;2024-03-08T09:01:48;19.00;;;10.00;;
13566;SDS011;6855;48.112;11.298;2024-03-08T09:04:15;22.13;;;10.03;;
13566;SDS011;6855;48.112;11.298;2024-03-08T09:06:42;17.70;;;9.97;;
13566;SDS011;6855;48.112;11.298;2024-03-08T09:09:10;16.07;;;9.47;;
13566;SDS011;6855;48.112;11.298;2024-03-08T09:11:38;21.50;;;10.60;;
13566;SDS011;6855;48.112;11.298;2024-03-08T09:14:07;16.97;;;10.00;;
13566;SDS011;6855;48.112;11.298;2024-03-08T09:16:35;16.70;;;9.80;;
13566;SDS011;6855;48.112;11.298;2024-03-08T09:19:03;19.27;;;10.60;;
13566;SDS011;6855;48.112;11.298;2024-03-08T09:21:30;19.20;;;10.23;;
13566;SDS011;6855;48.112;11.298;2024-03-08T09:23:57;20.13;;;9.73;;
13566;SDS011;6855;48.112;11.298;2024-03-08T09:26:24;21.50;;;9.40;;
13566;SDS011;6855;48.112;11.298;2024-03-08T09:28:52;17.13;;;9.70;;
13566;SDS011;6855;48.112;11.298;2024-03-08T09:31:19;16.40;;;10.10;;
13566;SDS011;6855;48.112;11.298;2024-03-08T09:33:48;15.83;;;8.63;;
13566;SDS011;6855;48.112;11.298;2024-03-08T09:36:15;17.00;;;9.50;;
13566;SDS011;6855;48.112;11.298;2024-03-08T09:38:43;14.50;;;9.70;;
13566;SDS011;6855;48.112;11.298;2024-03-08T09:41:10;18.30;;;9.67;;
13566;SDS011;6855;48.112;11.298;2024-03-08T09:43:38;15.30;;;9.77;;
13566;SDS011;6855;48.112;11.298;2024-03-08T09:46:05;14.70;;;9.30;;
13566;SDS011;6855;48.112;11.298;2024-03-08T09:48:33;15.00;;;8.87;;
13566;SDS011;6855;48.112;11.298;2024-03-08T09:51:01;12.40;;;9.40;;
13566;SDS011;6855;48.112;11.298;2024-03-08T09:53:29;15.70;;;9.57;;
13566;SDS011;6855;48.112;11.298;2024-03-08T09:55:56;12.37;;;8.63;;
13566;SDS011;6855;48.112;11.298;2024-03-08T09:58:24;14.87;;;9.47;;
13566;SDS011;6855;48.112;11.298;2024-03-08T10:01:18;11.13;;;8.00;;
13566;SDS011;6855;48.112;11.298;2024-03-08T10:03:46;18.60;;;9.40;;
13566;SDS011;6855;48.112;11.298;2024-03-08T10:06:18;16.30;;;11.23;;
13566;SDS011;6855;48.112;11.298;2024-03-08T10:08:49;15.00;;;9.77;;
13566;SDS011;6855;48.112;11.298;2024-03-08T10:11:17;14.30;;;9.77;;
13566;SDS011;6855;48.112;11.298;2024-03-08T10:13:44;12.30;;;9.07;;
13566;SDS011;6855;48.112;11.298;2024-03-08T10:16:11;12.97;;;9.00;;
13566;SDS011;6855;48.112;11.298;2024-03-08T10:18:39;13.80;;;10.43;;
13566;SDS011;6855;48.112;11.298;2024-03-08T10:21:07;13.23;;;9.73;;
13566;SDS011;6855;48.112;11.298;2024-03-08T10:23:36;15.83;;;10.37;;
13566;SDS011;6855;48.112;11.298;2024-03-08T10:26:10;14.57;;;9.53;;
13566;SDS011;6855;48.112;11.298;2024-03-08T10:28:41;12.07;;;9.23;;
13566;SDS011;6855;48.112;11.298;2024-03-08T10:31:09;12.83;;;9.60;;
13566;SDS011;6855;48.112;11.298;2024-03-08T10:33:36;14.60;;;10.17;;
13566;SDS011;6855;48.112;11.298;2024-03-08T10:36:05;14.97;;;10.00;;
13566;SDS011;6855;48.112;11.298;2024-03-08T10:38:34;11.53;;;8.57;;
13566;SDS011;6855;48.112;11.298;2024-03-08T10:41:04;14.00;;;9.07;;
13566;SDS011;6855;48.112;11.298;2024-03-08T10:43:32;13.80;;;9.00;;
13566;SDS011;6855;48.112;11.298;2024-03-08T10:46:05;14.93;;;9.27;;
13566;SDS011;6855;48.112;11.298;2024-03-08T10:48:39;12.60;;;8.70;;
13566;SDS011;6855;48.112;11.298;2024-03-08T10:51:07;16.27;;;9.60;;
13566;SDS011;6855;48.112;11.298;2024-03-08T10:53:36;15.90;;;9.80;;
13566;SDS011;6855;48.112;11.298;2024-03-08T10:56:07;12.37;;;9.03;;
13566;SDS011;6855;48.112;11.298;2024-03-08T10:58:38;17.67;;;8.87;;
13566;SDS011;6855;48.112;11.298;2024-03-08T11:01:06;14.70;;;8.80;;
13566;SDS011;6855;48.112;11.298;2024-03-08T11:03:44;12.87;;;9.70;;
13566;SDS011;6855;48.112;11.298;2024-03-08T11:06:14;12.10;;;9.20;;
13566;SDS011;6855;48.112;11.298;2024-03-08T11:08:42;14.10;;;9.57;;
13566;SDS011;6855;48.112;11.298;2024-03-08T11:11:24;11.83;;;8.30;;
13566;SDS011;6855;48.112;11.298;2024-03-08T11:13:55;10.67;;;8.23;;
13566;SDS011;6855;48.112;11.298;2024-03-08T11:16:38;14.57;;;9.40;;
13566;SDS011;6855;48.112;11.298;2024-03-08T11:19:25;15.20;;;9.30;;
13566;SDS011;6855;48.112;11.298;2024-03-08T11:22:02;14.77;;;8.97;;
13566;SDS011;6855;48.112;11.298;2024-03-08T11:24:39;13.83;;;9.40;;
13566;SDS011;6855;48.112;11.298;2024-03-08T11:27:08;17.87;;;9.40;;
13566;SDS011;6855;48.112;11.298;2024-03-08T11:29:37;14.23;;;9.40;;
13566;SDS011;6855;48.112;11.298;2024-03-08T11:32:05;16.93;;;8.90;;
13566;SDS011;6855;48.112;11.298;2024-03-08T11:34:34;14.33;;;8.90;;
13566;SDS011;6855;48.112;11.298;2024-03-08T11:37:03;15.20;;;9.10;;
13566;SDS011;6855;48.112;11.298;2024-03-08T11:39:34;15.23;;;9.43;;
13566;SDS011;6855;48.112;11.298;2024-03-08T11:42:03;16.80;;;9.30;;
13566;SDS011;6855;48.112;11.298;2024-03-08T11:44:32;14.97;;;9.37;;
13566;SDS011;6855;48.112;11.298;2024-03-08T11:46:59;13.67;;;8.83;;
13566;SDS011;6855;48.112;11.298;2024-03-08T11:49:26;13.33;;;8.47;;
13566;SDS011;6855;48.112;11.298;2024-03-08T11:51:53;12.40;;;9.03;;
13566;SDS011;6855;48.112;11.298;2024-03-08T11:54:21;12.63;;;8.77;;
13566;SDS011;6855;48.112;11.298;2024-03-08T11:56:51;12.07;;;8.50;;
13566;SDS011;6855;48.112;11.298;2024-03-08T11:59:20;13.80;;;8.80;;
13566;SDS011;6855;48.112;11.298;2024-03-08T12:02:01;13.23;;;8.60;;
13566;SDS011;6855;48.112;11.298;2024-03-08T12:04:29;10.90;;;8.20;;
13566;SDS011;6855;48.112;11.298;2024-03-08T12:06:59;12.33;;;8.17;;
13566;SDS011;6855;48.112;11.298;2024-03-08T12:09:27;12.57;;;8.60;;
13566;SDS011;6855;48.112;11.298;2024-03-08T12:11:54;15.10;;;9.57;;
13566;SDS011;6855;48.112;11.298;2024-03-08T12:14:22;13.63;;;9.20;;
13566;SDS011;6855;48.112;11.298;2024-03-08T12:16:50;17.03;;;10.90;;
13566;SDS011;6855;48.112;11.298;2024-03-08T12:19:19;12.20;;;9.27;;
13566;SDS011;6855;48.112;11.298;2024-03-08T12:21:46;13.67;;;9.30;;
13566;SDS011;6855;48.112;11.298;2024-03-08T12:24:15;13.30;;;9.50;;
13566;SDS011;6855;48.112;11.298;2024-03-08T12:26:44;11.83;;;9.10;;
13566;SDS011;6855;48.112;11.298;2024-03-08T12:29:22;12.63;;;9.20;;
13566;SDS011;6855;48.112;11.298;2024-03-08T12:31:52;11.73;;;8.60;;
13566;SDS011;6855;48.112;11.298;2024-03-08T12:34:21;11.30;;;8.43;;
13566;SDS011;6855;48.112;11.298;2024-03-08T12:36:49;12.07;;;8.67;;
13566;SDS011;6855;48.112;11.298;2024-03-08T12:39:19;13.37;;;8.50;;
13566;SDS011;6855;48.112;11.298;2024-03-08T12:41:51;11.33;;;8.97;;
13566;SDS011;6855;48.112;11.298;2024-03-08T12:44:19;13.03;;;9.00;;
13566;SDS011;6855;48.112;11.298;2024-03-08T12:46:47;14.83;;;10.03;;
13566;SDS011;6855;48.112;11.298;2024-03-08T12:49:19;12.47;;;9.13;;
13566;SDS011;6855;48.112;11.298;2024-03-08T12:51:52;10.93;;;8.90;;
13566;SDS011;6855;48.112;11.298;2024-03-08T12:54:19;12.63;;;9.27;;
13566;SDS011;6855;48.112;11.298;2024-03-08T12:56:48;11.20;;;9.60;;
13566;SDS011;6855;48.112;11.298;2024-03-08T12:59:18;13.70;;;10.30;;
13566;SDS011;6855;48.112;11.298;2024-03-08T13:01:46;13.87;;;9.70;;
13566;SDS011;6855;48.112;11.298;2024-03-08T13:04:16;13.60;;;10.43;;
13566;SDS011;6855;48.112;11.298;2024-03-08T13:06:44;13.80;;;10.57;;
13566;SDS011;6855;48.112;11.298;2024-03-08T13:09:14;11.33;;;8.80;;
13566;SDS011;6855;48.112;11.298;2024-03-08T13:11:44;13.27;;;8.70;;
13566;SDS011;6855;48.112;11.298;2024-03-08T13:14:15;14.17;;;9.70;;
13566;SDS011;6855;48.112;11.298;2024-03-08T13:20:28;12.80;;;8.87;;
13566;SDS011;6855;48.112;11.298;2024-03-08T13:23:46;14.30;;;10.47;;
13566;SDS011;6855;48.112;11.298;2024-03-08T13:32:16;13.27;;;10.53;;
13566;SDS011;6855;48.112;11.298;2024-03-08T15:38:23;16.63;;;10.37;;
13566;SDS011;6855;48.112;11.298;2024-03-08T16:18:57;19.60;;;10.37;;
13566;SDS011;6855;48.112;11.298;2024-03-08T16:21:24;19.13;;;10.40;;
13566;SDS011;6855;48.112;11.298;2024-03-08T16:23:52;24.20;;;10.60;;
13566;SDS011;6855;48.112;11.298;2024-03-08T16:26:19;17.83;;;10.10;;
13566;SDS011;6855;48.112;11.298;2024-03-08T16:28:48;15.53;;;8.90;;
13566;SDS011;6855;48.112;11.298;2024-03-08T16:31:18;16.40;;;10.73;;
13566;SDS011;6855;48.112;11.298;2024-03-08T16:33:46;15.43;;;8.77;;
13566;SDS011;6855;48.112;11.298;2024-03-08T16:36:14;18.13;;;9.80;;
13566;SDS011;6855;48.112;11.298;2024-03-08T16:38:42;16.30;;;9.60;;
13566;SDS011;6855;48.112;11.298;2024-03-08T16:41:10;18.77;;;8.77;;
13566;SDS011;6855;48.112;11.298;2024-03-08T16:43:38;13.97;;;9.10;;
13566;SDS011;6855;48.112;11.298;2024-03-08T16:46:05;14.93;;;8.63;;
13566;SDS011;6855;48.112;11.298;2024-03-08T16:48:34;16.70;;;9.57;;
13566;SDS011;6855;48.112;11.298;2024-03-08T16:51:01;17.60;;;10.47;;
13566;SDS011;6855;48.112;11.298;2024-03-08T16:53:30;16.07;;;9.13;;
13566;SDS011;6855;48.112;11.298;2024-03-08T16:56:04;17.13;;;9.50;;
13566;SDS011;6855;48.112;11.298;2024-03-08T16:58:31;25.40;;;8.57;;
13566;SDS011;6855;48.112;11.298;2024-03-08T17:01:00;15.03;;;9.43;;
13566;SDS011;6855;48.112;11.298;2024-03-08T17:03:27;14.40;;;9.37;;
13566;SDS011;6855;48.112;11.298;2024-03-08T17:05:56;17.90;;;9.10;;
13566;SDS011;6855;48.112;11.298;2024-03-08T17:08:23;17.03;;;9.00;;
13566;SDS011;6855;48.112;11.298;2024-03-08T17:10:51;14.07;;;8.83;;
13566;SDS011;6855;48.112;11.298;2024-03-08T17:13:20;15.70;;;9.40;;
13566;SDS011;6855;48.112;11.298;2024-03-08T17:15:47;18.43;;;9.30;;
13566;SDS011;6855;48.112;11.298;2024-03-08T17:18:14;17.97;;;8.90;;
13566;SDS011;6855;48.112;11.298;2024-03-08T17:20:41;18.97;;;9.97;;
13566;SDS011;6855;48.112;11.298;2024-03-08T17:23:09;17.87;;;10.40;;
13566;SDS011;6855;48.112;11.298;2024-03-08T17:25:38;17.17;;;9.47;;